Time;durP1;ratioP1;P1;durP2;ratioP2;P2;SDS_P1;SDS_P2;PMS_P1;PMS_P2;Temp;Humidity;BMP_temperature;BMP_pressure;BME280_temperature;BME280_humidity;BME280_pressure;Samples;Min_cycle;Max_cycle;Signal;HPM_P1;HPM_P2
2022/03/13 00:00:51;;;;;;;17.85;9.02;;;;;;;9.53;45.76;99894.09;4933939;29;20031;-79
2022/03/13 00:03:18;;;;;;;16.13;8.70;;;;;;;9.44;45.59;99896.44;4932193;29;20158;-80
2022/03/13 00:05:48;;;;;;;16.20;8.43;;;;;;;9.73;44.90;99895.38;4929394;29;20035;-81
2022/03/13 00:08:22;;;;;;;18.63;10.13;;;;;;;9.58;44.91;99894.97;4933406;29;20035;-81
2022/03/13 00:10:56;;;;;;;15.13;7.82;;;;;;;9.80;44.04;99891.38;4929163;29;20581;-80
2022/03/13 00:13:24;;;;;;;17.80;8.02;;;;;;;9.70;43.64;99894.03;4934723;29;20396;-80
2022/03/13 00:15:51;;;;;;;13.50;6.85;;;;;;;9.83;43.45;99889.22;4917356;29;20032;-82
2022/03/13 00:18:17;;;;;;;17.48;9.15;;;;;;;9.92;42.93;99893.97;4941951;29;20138;-81
2022/03/13 00:20:42;;;;;;;20.23;8.90;;;;;;;9.68;43.52;99886.09;4945561;29;20111;-82
2022/03/13 00:26:11;;;;;;;12.68;6.93;;;;;;;9.46;42.92;99886.09;4934135;29;20050;-82
2022/03/13 00:28:37;;;;;;;11.63;6.78;;;;;;;9.28;43.06;99885.38;4941556;29;20027;-82
2022/03/13 00:31:04;;;;;;;17.95;8.30;;;;;;;9.20;43.05;99883.91;4924000;29;20082;-83
2022/03/13 00:33:29;;;;;;;16.77;8.32;;;;;;;9.44;42.09;99888.25;4942767;29;20395;-83
2022/03/13 00:35:55;;;;;;;20.48;8.20;;;;;;;9.25;42.40;99879.63;4941142;29;20030;-82
2022/03/13 00:38:21;;;;;;;15.02;7.38;;;;;;;9.05;42.44;99881.81;4942236;29;20027;-83
2022/03/13 00:40:51;;;;;;;17.38;8.30;;;;;;;9.27;41.92;99883.72;4941351;29;20027;-82
2022/03/13 00:43:20;;;;;;;15.00;8.00;;;;;;;9.32;41.43;99880.22;4941759;29;20094;-81
2022/03/13 00:45:46;;;;;;;16.42;7.57;;;;;;;9.41;41.17;99870.56;4935913;29;20027;-80
2022/03/13 00:48:12;;;;;;;12.85;6.45;;;;;;;9.34;40.37;99878.09;4922155;29;20565;-81
2022/03/13 00:50:37;;;;;;;10.52;5.32;;;;;;;9.52;39.65;99878.84;4923306;29;20055;-79
2022/03/13 00:53:03;;;;;;;17.00;8.18;;;;;;;9.46;38.98;99877.94;4921667;29;20477;-80
2022/03/13 00:55:28;;;;;;;15.23;7.13;;;;;;;9.37;39.50;99883.03;4922900;29;20383;-80
2022/03/13 00:57:54;;;;;;;16.30;8.20;;;;;;;9.49;38.71;99879.34;4921409;29;20254;-81
2022/03/13 01:00:20;;;;;;;18.98;7.78;;;;;;;9.61;38.51;99873.75;4922287;29;20643;-81
2022/03/13 01:02:45;;;;;;;14.40;6.82;;;;;;;9.58;37.72;99870.47;4922127;29;20063;-80
2022/03/13 01:05:11;;;;;;;15.80;7.63;;;;;;;9.59;37.93;99874.00;4922175;29;20470;-81
2022/03/13 01:07:38;;;;;;;15.00;8.20;;;;;;;9.53;37.51;99872.31;4922429;29;20027;-81
2022/03/13 01:10:06;;;;;;;16.90;7.88;;;;;;;9.45;37.87;99868.97;4921873;29;20024;-81
2022/03/13 01:12:32;;;;;;;13.88;8.52;;;;;;;9.54;37.61;99866.59;4922682;29;20090;-81
2022/03/13 01:14:57;;;;;;;14.52;6.65;;;;;;;9.77;37.32;99863.84;4921161;29;20430;-81
2022/03/13 01:17:24;;;;;;;11.43;6.80;;;;;;;9.69;36.93;99863.25;4921397;29;20054;-80
2022/03/13 01:19:50;;;;;;;15.70;7.93;;;;;;;9.79;36.97;99861.69;4921689;29;20220;-80
2022/03/13 01:22:15;;;;;;;14.00;6.63;;;;;;;9.68;36.70;99855.34;4923055;29;20136;-82
2022/03/13 01:24:44;;;;;;;13.93;6.77;;;;;;;9.42;36.65;99847.69;4926827;29;20297;-80
2022/03/13 01:27:20;;;;;;;15.73;6.97;;;;;;;9.34;36.26;99848.16;4925639;29;20591;-81
2022/03/13 01:29:45;;;;;;;15.90;6.97;;;;;;;9.29;36.03;99848.09;4935993;29;20035;-81
2022/03/13 01:32:13;;;;;;;13.98;7.70;;;;;;;9.33;35.68;99841.06;4944279;29;20074;-80
2022/03/13 01:34:43;;;;;;;12.65;7.32;;;;;;;9.40;35.55;99836.25;4945845;29;20110;-80
2022/03/13 01:37:27;;;;;;;13.20;7.60;;;;;;;9.41;36.09;99840.63;4945005;29;20066;-81
2022/03/13 01:39:54;;;;;;;16.70;7.95;;;;;;;9.40;35.78;99838.97;4945120;29;20433;-81
2022/03/13 01:42:19;;;;;;;19.73;9.43;;;;;;;9.49;35.41;99841.25;4927645;29;20042;-81
2022/03/13 01:44:45;;;;;;;14.82;7.22;;;;;;;9.29;35.75;99837.22;4944182;29;20023;-81
2022/03/13 01:47:11;;;;;;;14.15;8.20;;;;;;;9.42;35.44;99825.94;4928557;29;20044;-81
2022/03/13 01:49:37;;;;;;;14.05;7.65;;;;;;;9.17;36.05;99829.19;4924223;29;20030;-80
2022/03/13 01:52:03;;;;;;;26.05;10.88;;;;;;;8.89;36.11;99825.59;4926422;29;20020;-81
2022/03/13 01:54:30;;;;;;;17.45;7.18;;;;;;;8.68;37.09;99815.25;4925170;29;20078;-80
2022/03/13 01:56:56;;;;;;;14.98;7.97;;;;;;;9.01;36.44;99809.94;4926091;29;20132;-80
2022/03/13 01:59:22;;;;;;;13.63;7.20;;;;;;;9.22;35.64;99811.03;4924952;29;20036;-81
2022/03/13 02:01:48;;;;;;;13.68;6.97;;;;;;;9.15;35.99;99810.41;4925067;29;20534;-81
2022/03/13 02:04:13;;;;;;;15.13;7.18;;;;;;;9.23;35.63;99817.31;4925953;29;20091;-81
2022/03/13 02:06:42;;;;;;;14.38;6.85;;;;;;;9.06;35.93;99814.63;4924435;29;20122;-81
2022/03/13 02:09:07;;;;;;;14.35;7.40;;;;;;;8.96;35.30;99808.00;4926069;29;20035;-80
2022/03/13 02:11:38;;;;;;;16.85;7.65;;;;;;;9.17;35.50;99808.22;4925156;29;20038;-81
2022/03/13 02:14:05;;;;;;;15.38;8.55;;;;;;;8.57;36.98;99810.75;4924944;29;20061;-81
2022/03/13 02:16:31;;;;;;;13.90;7.43;;;;;;;8.32;38.79;99809.28;4925082;29;20079;-80
2022/03/13 02:18:57;;;;;;;15.75;6.40;;;;;;;8.22;37.78;99810.75;4925108;29;20070;-80
2022/03/13 02:21:25;;;;;;;17.33;7.63;;;;;;;8.37;37.07;99795.75;4925895;29;20063;-81
2022/03/13 02:24:07;;;;;;;15.43;8.13;;;;;;;8.86;35.86;99794.28;4938729;29;20474;-81
2022/03/13 02:26:33;;;;;;;18.27;8.18;;;;;;;9.20;35.20;99788.69;4925671;29;20020;-80
2022/03/13 02:28:58;;;;;;;11.70;8.07;;;;;;;8.93;34.61;99784.03;4924000;29;20725;-81
2022/03/13 02:31:37;;;;;;;14.80;6.90;;;;;;;9.25;34.66;99781.69;4907415;29;20118;-81
2022/03/13 02:34:02;;;;;;;21.92;9.93;;;;;;;9.14;34.23;99786.16;4924088;29;20023;-81
2022/03/13 02:36:27;;;;;;;16.37;7.93;;;;;;;8.73;35.65;99781.88;4924420;29;20472;-81
2022/03/13 02:38:53;;;;;;;14.13;6.37;;;;;;;8.57;36.25;99783.56;4925412;29;20266;-81
2022/03/13 02:41:18;;;;;;;17.33;8.25;;;;;;;9.01;35.14;99781.97;4924285;29;20495;-80
2022/03/13 02:43:44;;;;;;;15.73;8.75;;;;;;;8.43;38.02;99775.75;4925137;29;20138;-80
2022/03/13 02:46:19;;;;;;;14.43;6.72;;;;;;;8.52;36.12;99776.16;4907068;29;20040;-80
2022/03/13 02:48:44;;;;;;;15.43;6.97;;;;;;;8.58;36.36;99777.06;4924617;29;20028;-80
2022/03/13 02:51:09;;;;;;;14.23;7.70;;;;;;;8.44;36.33;99777.38;4924986;29;20036;-80
2022/03/13 02:53:34;;;;;;;16.33;7.13;;;;;;;7.73;38.43;99781.47;4924431;29;20498;-81
2022/03/13 02:56:00;;;;;;;15.60;9.50;;;;;;;7.46;41.14;99780.19;4925470;29;20698;-81
2022/03/13 02:58:25;;;;;;;21.08;8.55;;;;;;;7.24;41.57;99778.97;4923726;29;20333;-80
2022/03/13 03:00:51;;;;;;;14.73;7.30;;;;;;;7.57;39.58;99768.44;4907753;29;20368;-80
2022/03/13 03:03:18;;;;;;;16.77;7.88;;;;;;;8.42;36.44;99765.94;4923992;29;20297;-81
2022/03/13 03:05:44;;;;;;;17.17;7.75;;;;;;;8.75;35.32;99758.81;4924523;29;20507;-81
2022/03/13 03:08:10;;;;;;;19.17;9.23;;;;;;;8.55;35.31;99766.66;4924196;29;20043;-80
2022/03/13 03:10:36;;;;;;;14.82;7.80;;;;;;;8.95;34.47;99757.41;4924959;29;20024;-81
2022/03/13 03:13:02;;;;;;;13.45;6.65;;;;;;;9.07;34.38;99759.19;4924376;29;20487;-80
2022/03/13 03:15:27;;;;;;;14.00;7.07;;;;;;;8.93;35.11;99764.19;4923049;29;20028;-80
2022/03/13 03:17:53;;;;;;;15.27;7.03;;;;;;;8.68;35.80;99768.22;4924632;29;20406;-80
2022/03/13 03:20:20;;;;;;;14.50;6.88;;;;;;;8.29;36.47;99762.53;4923848;29;20273;-80
2022/03/13 03:22:46;;;;;;;14.23;7.35;;;;;;;7.88;37.41;99761.88;4924276;29;20486;-80
2022/03/13 03:25:11;;;;;;;18.05;10.77;;;;;;;7.71;38.94;99768.97;4923891;29;20549;-80
2022/03/13 03:27:39;;;;;;;16.97;10.00;;;;;;;7.86;38.65;99769.47;4906541;29;20439;-81
2022/03/13 03:30:05;;;;;;;18.23;9.00;;;;;;;7.42;40.36;99768.19;4923468;29;21247;-80
2022/03/13 03:32:31;;;;;;;13.73;7.32;;;;;;;7.49;41.66;99776.97;4923116;29;20032;-80
2022/03/13 03:34:56;;;;;;;16.60;7.07;;;;;;;7.05;42.02;99772.94;4924474;29;20037;-81
2022/03/13 03:37:21;;;;;;;22.48;10.60;;;;;;;6.95;43.85;99773.56;4932432;29;20038;-79
2022/03/13 03:39:47;;;;;;;17.45;8.38;;;;;;;7.02;42.86;99765.25;4943538;29;20505;-81
2022/03/13 03:42:12;;;;;;;20.02;8.13;;;;;;;6.94;43.04;99765.66;4942710;29;20391;-80
2022/03/13 03:44:37;;;;;;;16.67;8.77;;;;;;;6.71;43.73;99768.16;4942561;29;20437;-80
2022/03/13 03:47:03;;;;;;;17.50;8.27;;;;;;;6.75;41.83;99763.13;4941362;28;20027;-79
2022/03/13 03:49:29;;;;;;;13.80;7.85;;;;;;;7.04;41.51;99760.44;4942206;29;20573;-80
2022/03/13 03:51:54;;;;;;;17.13;8.45;;;;;;;7.86;37.38;99748.56;4942825;29;20034;-80
2022/03/13 03:54:19;;;;;;;18.75;7.53;;;;;;;8.13;36.94;99749.78;4924202;29;20497;-79
2022/03/13 03:56:45;;;;;;;14.65;8.40;;;;;;;8.57;34.82;99751.78;4943426;29;20146;-80
2022/03/13 03:59:10;;;;;;;12.38;7.07;;;;;;;8.67;33.56;99750.25;4941516;29;20415;-80
2022/03/13 04:01:37;;;;;;;14.15;7.20;;;;;;;8.48;33.60;99748.63;4942806;29;20198;-81
2022/03/13 04:04:07;;;;;;;15.20;8.35;;;;;;;8.64;34.05;99746.97;4942819;29;20035;-80
2022/03/13 04:06:34;;;;;;;16.80;8.90;;;;;;;8.70;33.43;99745.16;4942072;29;20321;-81
2022/03/13 04:09:00;;;;;;;16.92;9.43;;;;;;;8.48;33.34;99743.22;4942255;29;20038;-81
2022/03/13 04:11:26;;;;;;;17.45;8.85;;;;;;;8.69;32.71;99746.22;4942017;29;20372;-81
2022/03/13 04:13:51;;;;;;;15.98;7.15;;;;;;;8.94;32.53;99746.78;4942317;29;20038;-80
2022/03/13 04:19:58;;;;;;;17.70;8.52;;;;;;;9.12;32.36;99737.47;4919782;29;20514;-80
2022/03/13 04:22:23;;;;;;;16.33;8.40;;;;;;;8.85;32.17;99749.13;4906236;29;20442;-80
2022/03/13 04:24:49;;;;;;;14.45;6.97;;;;;;;9.04;31.84;99744.19;4922434;29;20027;-80
2022/03/13 04:27:14;;;;;;;15.80;7.18;;;;;;;8.72;32.84;99745.75;4921277;29;20043;-81
2022/03/13 04:29:41;;;;;;;13.30;7.32;;;;;;;9.05;32.44;99742.31;4922002;29;20581;-80
2022/03/13 04:32:08;;;;;;;20.55;9.15;;;;;;;8.31;34.44;99737.81;4923553;29;20036;-80
2022/03/13 04:34:33;;;;;;;17.45;8.05;;;;;;;8.85;32.76;99741.78;4939402;29;20395;-80
2022/03/13 04:37:00;;;;;;;12.73;6.85;;;;;;;8.74;32.71;99732.72;4941242;29;20062;-81
2022/03/13 04:39:25;;;;;;;17.45;9.05;;;;;;;8.43;32.45;99729.56;4942359;29;20055;-81
2022/03/13 04:41:51;;;;;;;14.57;7.63;;;;;;;8.35;32.59;99719.97;4941584;29;20078;-80
2022/03/13 04:44:18;;;;;;;12.32;7.75;;;;;;;8.25;32.67;99720.63;4941424;29;20133;-81
2022/03/13 04:46:43;;;;;;;13.45;7.78;;;;;;;8.67;32.88;99723.09;4927795;29;20043;-80
2022/03/13 04:49:09;;;;;;;13.68;6.95;;;;;;;8.84;32.93;99728.47;4921229;29;20031;-81
2022/03/13 04:51:34;;;;;;;14.95;8.18;;;;;;;8.36;35.01;99740.59;4905148;29;20037;-81
2022/03/13 04:54:00;;;;;;;15.02;6.85;;;;;;;7.99;34.97;99739.28;4922037;29;20376;-81
2022/03/13 04:56:25;;;;;;;14.45;6.47;;;;;;;8.22;34.67;99740.13;4922551;29;20127;-80
2022/03/13 04:58:50;;;;;;;15.70;7.53;;;;;;;8.90;32.71;99735.59;4921438;29;20039;-80
2022/03/13 05:01:19;;;;;;;18.48;8.73;;;;;;;8.98;32.45;99739.78;4922813;29;20114;-80
2022/03/13 05:03:45;;;;;;;14.90;6.57;;;;;;;9.05;32.03;99739.59;4921426;29;20035;-79
2022/03/13 05:06:11;;;;;;;12.18;7.22;;;;;;;8.78;32.59;99740.34;4906137;29;20142;-80
2022/03/13 05:08:36;;;;;;;22.83;8.55;;;;;;;8.83;32.34;99743.13;4921957;29;20083;-80
2022/03/13 05:11:07;;;;;;;14.55;6.85;;;;;;;8.89;32.57;99746.75;4922068;29;20024;-81
2022/03/13 05:13:35;;;;;;;18.05;7.85;;;;;;;8.54;32.84;99752.28;4922061;29;20399;-81
2022/03/13 05:16:01;;;;;;;15.65;8.70;;;;;;;8.72;32.48;99751.19;4929151;29;20118;-81
2022/03/13 05:18:27;;;;;;;20.60;8.25;;;;;;;8.68;32.36;99751.91;4941969;29;20568;-81
2022/03/13 05:20:52;;;;;;;15.80;8.25;;;;;;;8.68;32.31;99752.75;4941048;29;20031;-80
2022/03/13 05:23:18;;;;;;;19.73;7.90;;;;;;;8.71;31.97;99744.06;4942089;29;20051;-80
2022/03/13 05:25:44;;;;;;;16.85;8.10;;;;;;;8.71;31.68;99745.97;4941414;29;20107;-81
2022/03/13 05:28:10;;;;;;;16.75;9.95;;;;;;;8.62;31.78;99746.41;4931806;29;20127;-80
2022/03/13 05:30:36;;;;;;;14.98;7.50;;;;;;;8.68;31.70;99741.03;4922423;29;20656;-81
2022/03/13 05:33:04;;;;;;;12.60;7.43;;;;;;;8.55;31.64;99737.59;4920308;29;20537;-81
2022/03/13 05:35:29;;;;;;;17.60;8.32;;;;;;;8.48;31.59;99737.78;4922125;29;20023;-80
2022/03/13 05:37:54;;;;;;;17.63;7.85;;;;;;;8.47;31.64;99735.31;4922105;29;20498;-80
2022/03/13 05:40:21;;;;;;;14.80;6.90;;;;;;;8.56;31.71;99733.00;4940948;29;20507;-80
2022/03/13 05:42:50;;;;;;;16.35;7.97;;;;;;;8.42;31.93;99733.34;4940805;29;20066;-80
2022/03/13 05:45:19;;;;;;;17.60;8.18;;;;;;;8.45;32.09;99727.41;4939843;29;20295;-80
2022/03/13 05:47:51;;;;;;;23.48;10.07;;;;;;;8.49;32.03;99733.16;4922496;29;20526;-81
2022/03/13 05:50:18;;;;;;;10.88;7.20;;;;;;;8.17;32.24;99724.63;4921255;29;20419;-80
2022/03/13 05:52:45;;;;;;;12.55;5.75;;;;;;;8.20;32.29;99725.19;4922384;29;20038;-80
2022/03/13 05:55:11;;;;;;;10.20;6.55;;;;;;;8.47;31.74;99727.16;4921635;29;20031;-80
2022/03/13 05:57:37;;;;;;;17.60;8.73;;;;;;;8.44;31.96;99743.97;4922458;29;20027;-81
2022/03/13 06:00:05;;;;;;;12.77;7.13;;;;;;;8.63;31.76;99745.34;4921297;29;20039;-80
2022/03/13 06:02:31;;;;;;;17.92;9.52;;;;;;;8.66;31.52;99733.16;4929077;29;20559;-81
2022/03/13 06:04:57;;;;;;;13.75;7.47;;;;;;;8.74;31.39;99740.03;4930387;29;20035;-80
2022/03/13 06:07:22;;;;;;;20.73;8.75;;;;;;;8.61;31.38;99746.66;4932118;29;20023;-81
2022/03/13 06:09:48;;;;;;;16.13;7.72;;;;;;;8.61;31.83;99724.91;4933323;28;20020;-80
2022/03/13 06:12:16;;;;;;;15.48;9.13;;;;;;;8.42;31.93;99727.91;4933215;29;20035;-80
2022/03/13 06:17:47;;;;;;;14.88;7.22;;;;;;;8.74;31.54;99729.16;4915552;29;20160;-81
2022/03/13 06:20:15;;;;;;;41.10;8.05;;;;;;;8.53;31.68;99729.69;4917144;29;20043;-81
2022/03/13 06:22:43;;;;;;;14.10;8.15;;;;;;;8.60;31.95;99729.53;4901628;29;20501;-80
2022/03/13 06:25:11;;;;;;;12.13;6.80;;;;;;;8.68;31.80;99731.00;4916096;29;20128;-80
2022/03/13 06:27:38;;;;;;;12.57;7.18;;;;;;;8.50;31.84;99738.34;4924366;29;20032;-80
2022/03/13 06:30:12;;;;;;;14.48;8.65;;;;;;;8.45;31.76;99743.72;4918244;29;20090;-80
2022/03/13 06:32:41;;;;;;;17.60;7.00;;;;;;;8.65;31.52;99739.66;4925570;29;20628;-80
2022/03/13 06:38:10;;;;;;;16.70;6.95;;;;;;;8.89;31.38;99735.88;4905571;29;20047;-80
2022/03/13 06:40:35;;;;;;;12.68;6.45;;;;;;;8.69;31.64;99737.25;4912472;29;20044;-80
2022/03/13 06:43:00;;;;;;;16.88;7.28;;;;;;;8.75;31.52;99731.63;4909887;29;20048;-80
2022/03/13 06:45:27;;;;;;;14.23;7.85;;;;;;;8.75;31.79;99731.63;4899534;29;20259;-81
2022/03/13 06:47:52;;;;;;;15.05;8.05;;;;;;;8.78;32.18;99743.06;4913734;29;20020;-81
2022/03/13 06:50:23;;;;;;;20.88;8.55;;;;;;;8.72;31.80;99743.03;4912730;29;20032;-81
2022/03/13 06:52:49;;;;;;;14.52;6.25;;;;;;;8.96;31.37;99748.19;4911666;29;20024;-80
2022/03/13 06:55:16;;;;;;;15.07;7.35;;;;;;;9.01;31.92;99752.03;4915950;29;20043;-80
2022/03/13 06:57:43;;;;;;;14.40;8.35;;;;;;;8.79;32.27;99761.03;4911763;29;20036;-84
2022/03/13 07:00:10;;;;;;;14.35;8.13;;;;;;;9.03;31.41;99760.78;4918811;29;20348;-80
2022/03/13 07:02:35;;;;;;;16.00;7.40;;;;;;;9.05;31.70;99761.34;4902593;29;20131;-81
2022/03/13 07:05:00;;;;;;;12.27;6.90;;;;;;;9.10;31.30;99764.09;4885931;29;20135;-80
2022/03/13 07:07:26;;;;;;;17.53;8.67;;;;;;;9.01;32.23;99761.00;4895435;29;20447;-80
2022/03/13 07:09:52;;;;;;;18.23;8.68;;;;;;;9.21;31.80;99775.94;4904703;29;20291;-82
2022/03/13 07:12:18;;;;;;;16.25;8.57;;;;;;;9.31;31.92;99781.47;4904698;29;20047;-82
2022/03/13 07:14:46;;;;;;;14.38;8.27;;;;;;;9.40;32.15;99770.94;4905250;29;20115;-80
2022/03/13 07:17:15;;;;;;;17.80;8.85;;;;;;;9.23;31.86;99763.69;4905094;29;20486;-81
2022/03/13 07:19:43;;;;;;;16.35;8.73;;;;;;;9.27;31.75;99764.03;4910588;29;20084;-82
2022/03/13 07:22:13;;;;;;;22.73;8.07;;;;;;;9.50;31.98;99766.69;4923083;29;20039;-81
2022/03/13 07:24:40;;;;;;;15.20;9.43;;;;;;;9.63;31.67;99763.53;4924211;29;20031;-80
2022/03/13 07:27:05;;;;;;;17.65;7.47;;;;;;;9.53;31.50;99767.00;4918266;29;20044;-82
2022/03/13 07:29:30;;;;;;;21.77;9.27;;;;;;;9.61;31.48;99762.97;4904548;29;20031;-85
2022/03/13 07:31:56;;;;;;;16.08;8.50;;;;;;;9.70;31.41;99774.22;4921367;29;20091;-81
2022/03/13 07:37:10;;;;;;;12.68;7.35;;;;;;;9.67;31.26;99766.56;4921002;29;20135;-83
2022/03/13 07:39:37;;;;;;;14.35;7.72;;;;;;;9.57;31.72;99773.56;4924934;29;20469;-82
2022/03/13 07:42:03;;;;;;;17.02;7.43;;;;;;;9.57;31.49;99767.28;4924734;29;20361;-82
2022/03/13 07:44:29;;;;;;;15.75;8.27;;;;;;;9.51;31.66;99768.31;4924314;29;20046;-81
2022/03/13 07:46:54;;;;;;;23.60;8.45;;;;;;;9.70;32.41;99763.34;4903642;29;20040;-82
2022/03/13 07:49:20;;;;;;;13.85;6.63;;;;;;;9.50;32.60;99766.69;4905159;29;20043;-82
2022/03/13 07:51:46;;;;;;;18.27;10.80;;;;;;;9.77;32.51;99763.94;4904462;29;20040;-81
2022/03/13 07:54:13;;;;;;;15.50;9.23;;;;;;;9.85;32.60;99762.63;4905416;29;20024;-83
2022/03/13 07:56:38;;;;;;;17.00;8.07;;;;;;;9.83;32.90;99767.50;4904325;29;20051;-83
2022/03/13 07:59:04;;;;;;;14.85;8.60;;;;;;;10.04;31.69;99768.50;4911489;29;20020;-84
2022/03/13 08:01:29;;;;;;;15.43;8.73;;;;;;;9.88;32.36;99772.19;4923477;29;20385;-83
2022/03/13 08:03:54;;;;;;;14.98;9.23;;;;;;;10.19;32.41;99777.06;4923548;29;20069;-83
2022/03/13 08:06:19;;;;;;;19.50;8.47;;;;;;;10.45;32.54;99764.41;4922885;29;20489;-82
2022/03/13 08:08:45;;;;;;;21.67;9.18;;;;;;;10.50;32.24;99761.72;4924088;29;20290;-83
2022/03/13 08:11:10;;;;;;;14.83;7.80;;;;;;;10.46;31.96;99765.22;4924255;29;20047;-82
2022/03/13 08:13:36;;;;;;;20.17;8.38;;;;;;;10.66;31.88;99764.53;4923228;29;20262;-82
2022/03/13 08:16:01;;;;;;;22.55;9.45;;;;;;;10.68;32.05;99756.91;4917346;29;20324;-82
2022/03/13 08:18:27;;;;;;;16.17;8.52;;;;;;;10.75;32.29;99753.94;4923908;29;20038;-82
2022/03/13 08:20:52;;;;;;;13.43;7.32;;;;;;;10.75;32.36;99762.13;4921922;29;20176;-85
2022/03/13 08:23:18;;;;;;;14.93;9.27;;;;;;;10.81;32.48;99755.59;4917761;29;20118;-82
2022/03/13 08:25:43;;;;;;;16.05;8.38;;;;;;;10.82;32.85;99756.44;4923298;29;20270;-82
2022/03/13 08:28:08;;;;;;;17.87;8.77;;;;;;;10.79;32.60;99755.06;4916845;29;20150;-81
2022/03/13 08:30:35;;;;;;;17.17;7.63;;;;;;;11.01;32.66;99759.50;4923122;29;20431;-82
2022/03/13 08:33:00;;;;;;;18.92;8.73;;;;;;;10.96;32.68;99756.75;4923109;29;20264;-84
2022/03/13 08:35:26;;;;;;;21.15;8.43;;;;;;;11.00;32.39;99757.03;4904774;29;20623;-82
2022/03/13 08:37:52;;;;;;;20.17;9.57;;;;;;;11.20;32.48;99759.84;4906391;29;20044;-82
2022/03/13 08:40:18;;;;;;;16.25;7.47;;;;;;;11.19;32.95;99750.00;4922931;29;20922;-82
2022/03/13 08:42:44;;;;;;;18.88;9.30;;;;;;;11.22;33.35;99756.84;4922966;29;20076;-83
2022/03/13 08:45:11;;;;;;;13.85;7.13;;;;;;;11.13;32.95;99755.69;4923454;29;20035;-82
2022/03/13 08:47:40;;;;;;;16.13;9.45;;;;;;;11.14;33.26;99757.34;4922558;29;20127;-82
2022/03/13 08:50:06;;;;;;;16.60;8.52;;;;;;;11.29;33.06;99757.38;4905244;29;20028;-82
2022/03/13 08:52:32;;;;;;;19.85;10.43;;;;;;;11.22;33.72;99754.09;4918431;29;21259;-81
2022/03/13 08:54:57;;;;;;;14.77;7.88;;;;;;;11.28;34.05;99750.28;4934434;29;20024;-81
2022/03/13 08:57:22;;;;;;;15.95;9.60;;;;;;;11.31;34.18;99748.91;4945874;29;20039;-82
2022/03/13 08:59:47;;;;;;;18.77;10.63;;;;;;;11.42;34.10;99749.75;4931581;29;20020;-82
2022/03/13 09:02:13;;;;;;;14.40;10.10;;;;;;;11.43;34.56;99746.75;4923007;29;20051;-83
2022/03/13 09:04:41;;;;;;;21.08;10.23;;;;;;;11.54;33.97;99739.41;4922480;29;20067;-85
2022/03/13 09:07:06;;;;;;;16.70;7.75;;;;;;;11.51;34.17;99745.41;4906068;29;20040;-85
2022/03/13 09:09:31;;;;;;;20.45;10.75;;;;;;;11.47;34.34;99749.75;4921597;29;20293;-81
2022/03/13 09:11:58;;;;;;;20.70;11.73;;;;;;;11.74;34.16;99737.78;4923401;29;20136;-83
2022/03/13 09:14:23;;;;;;;25.10;11.00;;;;;;;11.71;34.36;99746.53;4922382;29;20255;-82
2022/03/13 09:16:49;;;;;;;21.52;10.18;;;;;;;11.79;33.85;99745.16;4922377;29;20151;-83
2022/03/13 09:19:14;;;;;;;25.98;11.65;;;;;;;11.79;34.69;99751.44;4922551;29;20028;-82
2022/03/13 09:21:39;;;;;;;22.13;9.63;;;;;;;11.92;34.45;99749.22;4922507;29;20062;-82
2022/03/13 09:24:07;;;;;;;23.17;10.70;;;;;;;11.98;34.49;99742.66;4922414;29;20277;-81
2022/03/13 09:26:34;;;;;;;16.63;9.95;;;;;;;12.14;34.83;99753.63;4922301;29;20043;-82
2022/03/13 09:29:03;;;;;;;20.13;9.65;;;;;;;12.21;34.41;99740.50;4923266;29;20527;-81
2022/03/13 09:31:29;;;;;;;20.00;10.80;;;;;;;12.25;35.41;99744.31;4923707;29;20032;-83
2022/03/13 09:33:54;;;;;;;20.77;9.05;;;;;;;12.21;35.51;99745.94;4914276;29;20130;-82
2022/03/13 09:36:19;;;;;;;20.75;11.02;;;;;;;12.44;35.07;99737.44;4925155;29;20042;-82
2022/03/13 09:38:45;;;;;;;17.10;9.35;;;;;;;12.35;34.83;99739.91;4926226;29;20024;-81
2022/03/13 09:41:11;;;;;;;19.35;9.95;;;;;;;12.46;34.94;99736.06;4927872;29;20039;-84
2022/03/13 09:43:36;;;;;;;18.60;9.35;;;;;;;12.38;35.11;99739.38;4940057;28;20044;-80
2022/03/13 09:46:01;;;;;;;20.05;9.90;;;;;;;12.42;35.29;99728.69;4937119;29;20171;-84
2022/03/13 09:48:27;;;;;;;18.10;8.65;;;;;;;12.41;35.62;99743.47;4925676;29;20044;-81
2022/03/13 09:50:53;;;;;;;20.13;11.27;;;;;;;12.25;36.30;99757.16;4925762;29;20027;-79
2022/03/13 09:53:18;;;;;;;19.92;11.00;;;;;;;12.26;36.75;99754.13;4925759;29;20390;-81
2022/03/13 09:55:44;;;;;;;20.05;10.57;;;;;;;12.36;36.25;99741.56;4925851;29;20388;-81
2022/03/13 09:58:09;;;;;;;24.40;9.35;;;;;;;12.43;36.76;99747.53;4925229;29;20558;-82
2022/03/13 10:00:36;;;;;;;20.27;10.13;;;;;;;12.68;35.78;99754.03;4925415;29;20130;-82
2022/03/13 10:03:05;;;;;;;18.35;9.68;;;;;;;12.86;36.32;99749.03;4925411;29;20044;-80
2022/03/13 10:05:43;;;;;;;21.42;10.40;;;;;;;12.75;37.19;99744.72;4925156;29;20036;-82
2022/03/13 10:08:09;;;;;;;19.63;10.10;;;;;;;12.71;37.47;99742.50;4924412;29;20046;-82
2022/03/13 10:10:45;;;;;;;20.70;11.38;;;;;;;12.93;37.42;99744.09;4925737;29;20036;-81
2022/03/13 10:13:13;;;;;;;15.32;10.38;;;;;;;12.99;37.12;99746.78;4925009;29;20154;-81
2022/03/13 10:15:47;;;;;;;23.25;11.30;;;;;;;13.10;36.89;99742.88;4920886;29;20557;-81
2022/03/13 10:18:18;;;;;;;16.27;7.90;;;;;;;13.17;37.05;99739.84;4930137;29;20150;-83
2022/03/13 10:20:44;;;;;;;17.33;8.32;;;;;;;13.35;37.42;99749.31;4931123;29;20055;-81
2022/03/13 10:23:11;;;;;;;18.83;8.50;;;;;;;13.51;36.82;99739.06;4924585;29;20185;-80
2022/03/13 10:25:39;;;;;;;21.48;9.35;;;;;;;13.49;36.98;99740.44;4933805;29;20395;-80
2022/03/13 10:28:19;;;;;;;16.65;9.95;;;;;;;13.56;37.13;99732.78;4932759;29;20566;-80
2022/03/13 10:33:54;;;;;;;23.08;9.90;;;;;;;13.70;38.15;99730.19;4920575;29;20081;-81
2022/03/13 10:36:37;;;;;;;19.85;10.35;;;;;;;13.85;37.84;99734.72;4929891;29;20103;-82
2022/03/13 10:39:10;;;;;;;20.05;9.40;;;;;;;13.97;36.93;99736.28;4925999;29;20472;-80
2022/03/13 10:41:44;;;;;;;17.45;9.27;;;;;;;13.74;37.64;99723.03;4925072;29;20705;-81
2022/03/13 10:44:14;;;;;;;19.27;10.23;;;;;;;13.89;37.46;99724.81;4934872;29;20031;-81
2022/03/13 10:46:42;;;;;;;18.90;8.98;;;;;;;13.95;37.55;99722.03;4930855;29;20035;-82
2022/03/13 10:49:09;;;;;;;19.17;9.05;;;;;;;14.09;37.00;99716.69;4927675;29;20824;-81
2022/03/13 10:51:46;;;;;;;14.23;8.60;;;;;;;13.95;38.30;99720.09;4925027;29;20135;-81
2022/03/13 10:54:29;;;;;;;18.35;9.02;;;;;;;14.07;37.77;99714.25;4932327;29;20374;-81
2022/03/13 10:57:11;;;;;;;17.52;9.27;;;;;;;14.12;38.04;99716.94;4929417;29;20028;-82
2022/03/13 10:59:39;;;;;;;18.25;9.63;;;;;;;14.23;37.55;99714.91;4930270;29;20048;-81
2022/03/13 11:02:15;;;;;;;16.80;7.85;;;;;;;14.17;37.98;99712.50;4933067;29;20053;-82
2022/03/13 11:04:48;;;;;;;16.98;9.00;;;;;;;14.17;37.48;99723.47;4930868;29;20042;-81
2022/03/13 11:07:13;;;;;;;17.70;9.05;;;;;;;14.36;37.66;99710.63;4935460;29;20433;-80
2022/03/13 11:09:39;;;;;;;19.23;9.77;;;;;;;14.58;37.60;99703.78;4935434;29;20031;-80
2022/03/13 11:12:06;;;;;;;17.92;9.15;;;;;;;14.58;37.20;99712.03;4934377;29;20095;-82
2022/03/13 11:17:36;;;;;;;20.35;9.55;;;;;;;14.82;37.65;99705.72;4924554;29;20415;-81
2022/03/13 11:20:04;;;;;;;18.17;8.65;;;;;;;14.76;37.23;99706.88;4927466;29;20159;-82
2022/03/13 11:22:29;;;;;;;19.42;10.27;;;;;;;14.87;36.78;99706.78;4928749;29;20480;-83
2022/03/13 11:25:02;;;;;;;22.17;11.40;;;;;;;14.77;36.77;99705.75;4943158;29;20031;-81
2022/03/13 11:27:30;;;;;;;13.27;8.27;;;;;;;14.99;37.11;99706.34;4940201;29;20035;-81
2022/03/13 11:29:57;;;;;;;17.40;9.48;;;;;;;14.91;37.29;99703.13;4924145;29;20270;-80
2022/03/13 11:32:47;;;;;;;14.82;8.85;;;;;;;15.11;37.63;99697.66;4923458;29;20261;-80
2022/03/13 11:35:13;;;;;;;12.55;7.22;;;;;;;15.19;37.65;99691.50;4922868;29;20160;-81
2022/03/13 11:37:40;;;;;;;15.98;7.20;;;;;;;15.15;36.86;99685.75;4923662;29;20410;-79
2022/03/13 11:43:14;;;;;;;14.93;7.43;;;;;;;15.29;36.46;99682.28;4919920;29;20095;-81
2022/03/13 11:45:41;;;;;;;16.75;8.55;;;;;;;15.37;37.43;99686.28;4923167;29;20099;-81
2022/03/13 11:48:08;;;;;;;15.98;8.13;;;;;;;15.55;36.56;99689.28;4922927;29;20387;-81
2022/03/13 11:50:48;;;;;;;19.80;8.25;;;;;;;15.52;36.22;99687.94;4923619;29;20056;-80
2022/03/13 11:53:15;;;;;;;39.13;10.02;;;;;;;15.52;36.34;99694.25;4927968;29;20327;-81